Tiempo atmosférico en la estación meteorológica de Xinzo De Limia, Ourense (600 m.)



Fecha
DESCASC
Temp. máxima en grados centígrados (hora)
DESCASC
Temp. mínima en grados centígrados (hora)
DESCASC
Temp. media en grados centígrados
DESCASC
Racha de viento máxima en m/sg (hora)
DESCASC
Velocidad máxima media en intervalos de 10 minutos(hora)
DESCASC
Precipitaciones diarias en mm
DESCASC
Precipitaciones de 00:00 a 06:00 en mm
DESCASC
Precipitaciones de 06:00 a 12:00 en mm
DESCASC
Precipitaciones de 12:00 a 18:00 en mm
DESCASC
Precipitaciones de 18:00 a 24:00 en mm
DESCASC
02-08-2020 26.1 (18:40) 12.7 (02:10) 19.4 8.89 (17:40) 5.56 (18:20) 0 0 0 0 0
01-08-2020 27.6 (17:50) 13.5 (03:00) 20.6 9.17 (18:00) 5 (21:10) 0 0 0 0 0
31-07-2020 31.6 (15:50) 9.3 (07:50) 20.5 8.61 (12:50) 4.72 (19:00) 0 0 0 0 0
30-07-2020 36.1 (15:00) 13.3 (00:00) 24.7 10 (17:40) 5.56 (18:00) 0 0 0 0 0
29-07-2020 36 (15:30) 12.5 (00:00) 24.3 7.78 (13:40) 4.44 (16:10) 0 0 0 0 0
28-07-2020 29.6 (18:00) 14.9 (04:00) 22.3 8.61 (17:00) 4.72 (18:30) 0 0 0 0 0
27-07-2020 31.7 (16:00) 9.3 (00:00) 20.5 7.5 (16:00) 4.44 (15:50) 0 0 0 0 0
26-07-2020 32.3 (18:20) 13.1 (00:00) 22.7 7.5 (17:40) 4.17 (17:00) 0 0 0 0 0
25-07-2020 30.1 (17:00) 8.7 (07:10) 19.4 9.17 (16:00) 5.28 (13:10) 0 0 0 0 0
24-07-2020 28.9 (18:00) 10.8 (00:00) 19.8 8.89 (19:20) 5.28 (15:50) 0 0 0 0 0
23-07-2020 32.7 (17:40) 11.6 (00:00) 22.2 9.17 (18:10) 5 (15:20) 0 0 0 0 0
22-07-2020 33.5 (19:00) 12.8 (07:30) 23.2 13.61 (18:50) 5.56 (19:40) 0 0 0 0 0
21-07-2020 34.9 (16:10) 12.5 (00:00) 23.7 8.33 (13:30) 4.72 (13:30) 0 0 0 0 0
20-07-2020 31.8 (17:40) 13.9 (02:50) 22.8 7.78 (18:00) 4.44 (15:00) 0 0 0 0 0
19-07-2020 34 (17:30) 10.1 (00:00) 22.1 8.89 (17:50) 4.72 (18:40) 0 0 0 0 0
18-07-2020 36.6 (18:20) 12.8 (00:00) 24.7 10.56 (11:40) 6.39 (11:40) 0 0 0 0 0
17-07-2020 35.9 (18:30) 10.6 (00:00) 23.3 10 (11:50) 5.28 (11:50) 0 0 0 0 0
16-07-2020 32.7 (15:30) 8.6 (00:00) 20.7 8.33 (13:20) 5 (12:20) 0 0 0 0 0
15-07-2020 30.7 (17:20) 7.7 (07:40) 19.2 8.61 (18:50) 6.11 (18:50) 0 0 0 0 0
14-07-2020 25.7 (16:20) 8.7 (00:00) 17.2 9.72 (17:50) 6.11 (18:30) 0 0 0 0 0
13-07-2020 31.3 (17:00) 12.2 (06:20) 21.7 8.33 (19:30) 5 (19:30) 0 0 0 0 0
12-07-2020 32.7 (17:00) 15.9 (08:00) 24.3 10.28 (00:50) 5.83 (00:50) 0 0 0 0 0
11-07-2020 34.7 (18:40) 7.8 (07:10) 21.3 12.22 (23:40) 5.83 (23:50) 0 0 0 0 0
10-07-2020 27.7 (17:10) 8.4 (00:00) 18.1 8.06 (16:20) 4.72 (17:30) 0 0 0 0 0
09-07-2020 29.1 (18:20) 14.3 (03:30) 21.7 9.17 (15:40) 5.28 (17:10) 0 0 0 0 0
08-07-2020 30.9 (18:00) 12.8 (07:20) 21.8 8.33 (19:50) 5.28 (19:50) 0 0 0 0 0
07-07-2020 34.3 (15:40) 10.2 (07:20) 22.2 9.17 (12:20) 5.28 (12:20) 0 0 0 0 0

Gráficas

Temp. máximas Temp. mínimas Temp. medias Precipitaciones Rachas de viento máximas Velocidades máximas media en intervalos de 10 minutos

Datos horarios

Fecha y hora oficial Temperatura (ºC) Velocidad del viento (km/h) Dirección del viento Racha (km/h) Dirección de racha Precipitación (mm) Presión (hPa) Tendencia (hPa) Humedad (%)
2020-08-05 23:00:00 23.4 7 Oeste 12 Oeste 0 -- -- 48
2020-08-05 22:00:00 26 7 Noroeste 16 Noroeste 0 -- -- 39
2020-08-05 21:00:00 29.7 11 Noroeste 24 Norte 0 -- -- 31
2020-08-05 20:00:00 32.4 13 Noroeste 23 Noroeste 0 -- -- 26
2020-08-05 19:00:00 33.8 13 Noroeste 23 Norte 0 -- -- 22
2020-08-05 18:00:00 34 10 Norte 23 Norte 0 -- -- 21
2020-08-05 17:00:00 33.9 10 Nordeste 23 Norte 0 -- -- 22
2020-08-05 16:00:00 33.3 13 Norte 23 Norte 0 -- -- 24
2020-08-05 15:00:00 32.9 4 Norte 16 Norte 0 -- -- 23
2020-08-05 14:00:00 32.5 8 Norte 13 Noroeste 0 -- -- 24
2020-08-05 13:00:00 30.8 5 Sur 15 Sudeste 0 -- -- 26
2020-08-05 12:00:00 29 6 Sudeste 19 Este 0 -- -- 30
2020-08-05 11:00:00 22.8 0 Calma 6 Oeste 0 -- -- 48
2020-08-05 10:00:00 17.3 0 Calma 4 Este 0 -- -- 69
2020-08-05 09:00:00 11.6 0 Calma 3 Nordeste 0 -- -- 90
2020-08-05 08:00:00 6.8 0 Calma 5 Sur 0 -- -- 89
2020-08-05 07:00:00 7.6 3 Sudoeste 5 Sur 0 -- -- 89
2020-08-05 06:00:00 7.7 0 Calma 2 Sudoeste 0 -- -- 87
2020-08-05 05:00:00 8.9 0 Calma 5 Noroeste 0 -- -- 86
2020-08-05 04:00:00 9.9 0 Calma 3 Norte 0 -- -- 81
2020-08-05 03:00:00 11.4 0 Calma 5 Sur 0 -- -- 75
2020-08-05 02:00:00 13.5 3 Sur 8 Sudoeste 0 -- -- 68
2020-08-05 01:00:00 15.6 5 Sudoeste 10 Sudoeste 0 -- -- 59
2020-08-05 00:00:00 16.6 0 Calma 10 Sudoeste 0 -- -- 53
2020-08-04 23:00:00 19.4 6 Sudoeste 11 Oeste 0 -- -- 43
2020-08-04 22:00:00 22.8 6 Norte 9 Noroeste 0 -- -- 34
2020-08-04 21:00:00 28.5 6 Noroeste 19 Norte 0 -- -- 24
2020-08-04 20:00:00 29.6 13 Norte 22 Norte 0 -- -- 22
2020-08-04 19:00:00 30 10 Noroeste 24 Norte 0 -- -- 20
2020-08-04 18:00:00 30.6 9 Norte 23 Noroeste 0 -- -- 20
2020-08-04 17:00:00 29.9 9 Norte 22 Norte 0 -- -- 24
2020-08-04 16:00:00 29 10 Norte 21 Nordeste 0 -- -- 28
2020-08-04 15:00:00 28.2 9 Norte 18 Norte 0 -- -- 32
2020-08-04 14:00:00 26.6 7 Norte 16 Nordeste 0 -- -- 36
2020-08-04 13:00:00 24.9 5 Norte 17 Nordeste 0 -- -- 45
2020-08-04 12:00:00 22.2 4 Nordeste 17 Sur 0 -- -- 56
2020-08-04 11:00:00 18.8 4 Nordeste 12 Nordeste 0 -- -- 70
2020-08-04 10:00:00 16 3 Sudeste 10 Nordeste 0 -- -- 86
2020-08-04 09:00:00 14.3 4 Nordeste 9 Nordeste 0 -- -- 89
2020-08-04 08:00:00 13.9 0 Calma 6 Sudeste 0 -- -- 90
2020-08-04 07:00:00 14 0 Calma 9 Noroeste 0 -- -- 90
2020-08-04 06:00:00 13.9 3 Norte 8 Noroeste 0 -- -- 90
2020-08-04 05:00:00 13.8 3 Noroeste 12 Noroeste 0 -- -- 90
2020-08-04 04:00:00 13.4 4 Oeste 12 Noroeste 0 -- -- 89
2020-08-04 03:00:00 14 5 Oeste 10 Noroeste 0 -- -- 88
2020-08-04 02:00:00 14.5 6 Noroeste 15 Noroeste 0 -- -- 87
2020-08-04 01:00:00 15.2 5 Noroeste 11 Norte 0 -- -- 83
2020-08-04 00:00:00 16.2 9 Norte 23 Noroeste 0 -- -- 80
2020-08-03 23:00:00 17.9 10 Noroeste 18 Noroeste 0 -- -- 71
2020-08-03 22:00:00 19.7 10 Noroeste 22 Noroeste 0 -- -- 58
2020-08-03 21:00:00 22.9 13 Noroeste 26 Noroeste 0 -- -- 45
2020-08-03 20:00:00 24.4 18 Noroeste 33 Noroeste 0 -- -- 42
2020-08-03 19:00:00 25.5 17 Noroeste 30 Norte 0 -- -- 39
2020-08-03 18:00:00 26.3 12 Noroeste 28 Norte 0 -- -- 39
2020-08-03 17:00:00 26.4 12 Noroeste 27 Norte 0 -- -- 39
2020-08-03 16:00:00 26.2 12 Norte 31 Noroeste 0 -- -- 40
2020-08-03 15:00:00 25.4 13 Norte 27 Norte 0 -- -- 42
2020-08-03 14:00:00 24.5 11 Norte 21 Nordeste 0 -- -- 44
2020-08-03 13:00:00 22.6 9 Norte 21 Nordeste 0 -- -- 43
2020-08-03 12:00:00 21.6 14 Norte 23 Norte 0 -- -- 41
2020-08-03 11:00:00 19.6 10 Norte 15 Norte 0 -- -- 38
2020-08-03 10:00:00 15 3 Nordeste 7 Nordeste 0 -- -- 88
2020-08-03 09:00:00 11.3 0 Calma 5 Nordeste 0 -- -- 92
2020-08-03 08:00:00 8.6 0 Calma 8 Sudoeste 0 -- -- 90
2020-08-03 07:00:00 9.4 0 Calma 7 Oeste 0 -- -- 89
2020-08-03 06:00:00 10.5 3 Sudoeste 7 Sudoeste 0 -- -- 87
2020-08-03 05:00:00 11.7 0 Calma 13 Noroeste 0 -- -- 85
2020-08-03 04:00:00 12.7 6 Noroeste 10 Noroeste 0 -- -- 84
2020-08-03 03:00:00 13.5 3 Sudoeste 13 Oeste 0 -- -- 82
2020-08-03 02:00:00 14.6 8 Noroeste 15 Noroeste 0 -- -- 81
2020-08-03 01:00:00 15.2 8 Noroeste 16 Noroeste 0 -- -- 79
2020-08-03 00:00:00 16.9 8 Noroeste 18 Noroeste 0 -- -- 71
2020-08-02 23:00:00 18.2 9 Noroeste 18 Norte 0 -- -- 55
2020-08-02 22:00:00 19.6 10 Noroeste 21 Norte 0 -- -- 44
2020-08-02 21:00:00 21.7 14 Norte 27 Norte 0 -- -- 39
2020-08-02 20:00:00 24.6 13 Norte 30 Noroeste 0 -- -- 33
2020-08-02 19:00:00 25.6 18 Norte 32 Norte 0 -- -- 30
2020-08-02 18:00:00 25.6 19 Noroeste 32 Noroeste 0 -- -- 32
2020-08-02 17:00:00 26 14 Norte 26 Noroeste 0 -- -- 34
2020-08-02 16:00:00 24.7 16 Noroeste 27 Noroeste 0 -- -- 38
2020-08-02 15:00:00 24.2 12 Noroeste 25 Norte 0 -- -- 40
2020-08-02 14:00:00 23.3 14 Noroeste 23 Norte 0 -- -- 43
2020-08-02 13:00:00 21.6 9 Noroeste 21 Noroeste 0 -- -- 48
2020-08-02 12:00:00 19.5 9 Norte 16 Noroeste 0 -- -- 53
2020-08-02 11:00:00 17.1 3 Noroeste 17 Norte 0 -- -- 68
2020-08-02 10:00:00 14.6 7 Noroeste 13 Oeste 0 -- -- 78
2020-08-02 09:00:00 13.8 4 Noroeste 11 Noroeste 0 -- -- 82
2020-08-02 08:00:00 13.5 5 Noroeste 15 Oeste 0 -- -- 84
2020-08-02 07:00:00 13.7 4 Noroeste 12 Noroeste 0 -- -- 85
2020-08-02 06:00:00 13.9 5 Noroeste 12 Noroeste 0 -- -- 86
2020-08-02 05:00:00 13.8 8 Noroeste 14 Noroeste 0 -- -- 88
2020-08-02 04:00:00 13.9 5 Norte 12 Noroeste 0 -- -- 88
2020-08-02 03:00:00 13.6 5 Noroeste 11 Noroeste 0 -- -- 87
2020-08-02 02:00:00 12.8 5 Norte 10 Noroeste 0 -- -- 84
2020-08-02 01:00:00 14.5 2 Oeste 14 Noroeste 0 -- -- 79
2020-08-02 00:00:00 16 7 Noroeste 16 Noroeste 0 -- -- 73
2020-08-01 23:00:00 17.7 9 Noroeste 24 Norte 0 -- -- 66
2020-08-01 22:00:00 20 14 Norte 30 Noroeste 0 -- -- 57
2020-08-01 21:00:00 24.9 12 Norte 23 Norte 0 -- -- 36
2020-08-01 20:00:00 26.8 10 Norte 31 Norte 0 -- -- 36
2020-08-01 19:00:00 26.9 15 Norte 27 Norte 0 -- -- 35
2020-08-01 18:00:00 27.2 14 Noroeste 33 Noroeste 0 -- -- 34
2020-08-01 17:00:00 26.7 15 Norte 29 Norte 0 -- -- 36
2020-08-01 16:00:00 25.7 10 Noroeste 28 Norte 0 -- -- 40
2020-08-01 15:00:00 24.2 14 Norte 28 Nordeste 0 -- -- 49
2020-08-01 14:00:00 21.6 11 Norte 20 Nordeste 0 -- -- 63
2020-08-01 13:00:00 19.3 9 Norte 17 Norte 0 -- -- 74
2020-08-01 12:00:00 18.3 7 Norte 15 Norte 0 -- -- 79
2020-08-01 11:00:00 17.5 12 Norte 17 Noroeste 0 -- -- 84
2020-08-01 10:00:00 17.8 4 Nordeste 9 Nordeste 0 -- -- 90
2020-08-01 09:00:00 16.2 4 Noroeste 7 Noroeste 0 -- -- 91
2020-08-01 08:00:00 14.1 0 Calma 13 Oeste 0 -- -- 91
2020-08-01 07:00:00 14.4 5 Oeste 10 Oeste 0 -- -- 90
2020-08-01 06:00:00 13.9 0 Calma 12 Oeste 0 -- -- 89
2020-08-01 05:00:00 14.6 6 Oeste 10 Oeste 0 -- -- 88
2020-08-01 04:00:00 13.9 3 Sudoeste 10 Sudoeste 0 -- -- 85
2020-08-01 03:00:00 13.6 4 Oeste 9 Oeste 0 -- -- 79
2020-08-01 02:00:00 14.7 6 Sudoeste 9 Sudoeste 0 -- -- 72
2020-08-01 01:00:00 15.8 4 Sudoeste 9 Oeste 0 -- -- 63
2020-08-01 00:00:00 18.6 4 Oeste 13 Oeste 0 -- -- 52
2020-07-31 23:00:00 20.1 6 Noroeste 20 Noroeste 0 -- -- 42
2020-07-31 22:00:00 22.1 11 Noroeste 20 Noroeste 0 -- -- 38
2020-07-31 21:00:00 23.7 10 Noroeste 19 Oeste 0 -- -- 38
2020-07-31 20:00:00 27.6 10 Noroeste 25 Oeste 0 -- -- 32
2020-07-31 19:00:00 28.5 17 Noroeste 27 Noroeste 0 -- -- 29
2020-07-31 18:00:00 30.9 12 Noroeste 24 Noroeste 0 -- -- 28
2020-07-31 17:00:00 30.9 10 Noroeste 22 Noroeste 0 -- -- 27
2020-07-31 16:00:00 30.8 11 Noroeste 25 Noroeste 0 -- -- 25
2020-07-31 15:00:00 30.8 13 Noroeste 22 Norte 0 -- -- 26
2020-07-31 14:00:00 31.2 6 Norte 25 Norte 0 -- -- 27
2020-07-31 13:00:00 29.4 6 Norte 31 Nordeste 0 -- -- 25
2020-07-31 12:00:00 26.8 6 Norte 11 Nordeste 0 -- -- 31
2020-07-31 11:00:00 23 5 Nordeste 9 Nordeste 0 -- -- 47
2020-07-31 10:00:00 18.3 0 Calma 6 Noroeste 0 -- -- 60
2020-07-31 09:00:00 13.7 0 Calma 8 Oeste 0 -- -- 79
2020-07-31 08:00:00 9.8 3 Sudoeste 6 Sudoeste 0 -- -- 86
2020-07-31 07:00:00 9.8 4 Sur 6 Norte 0 -- -- 86
2020-07-31 06:00:00 10.3 0 Calma 3 Noroeste 0 -- -- 82
2020-07-31 05:00:00 11.7 0 Calma 4 Nordeste 0 -- -- 78
2020-07-31 04:00:00 13.5 5 Sudoeste 7 Sudoeste 0 -- -- 69
2020-07-31 03:00:00 14.5 4 Sudoeste 10 Oeste 0 -- -- 63
2020-07-31 02:00:00 15.9 4 Sur 7 Sur 0 -- -- 59
2020-07-31 01:00:00 17.9 2 Sur 9 Sur 0 -- -- 56
2020-07-31 00:00:00 19.2 6 Sur 9 Sudoeste 0 -- -- 49
2020-07-30 23:00:00 22.1 2 Sudoeste 8 Sudoeste 0 -- -- 38
2020-07-30 22:00:00 25.9 2 Nordeste 13 Oeste 0 -- -- 30
2020-07-30 21:00:00 30 3 Oeste 22 Oeste 0 -- -- 20
2020-07-30 20:00:00 31.1 6 Oeste 27 Oeste 0 -- -- 18
2020-07-30 19:00:00 32.5 10 Oeste 36 Oeste 0 -- -- 20
2020-07-30 18:00:00 32.8 20 Oeste 36 Oeste 0 -- -- 20
2020-07-30 17:00:00 35.1 12 Sudoeste 31 Oeste 0 -- -- 22
2020-07-30 16:00:00 35.4 15 Oeste 35 Oeste 0 -- -- 22
2020-07-30 15:00:00 35.8 14 Oeste 30 Oeste 0 -- -- 24
2020-07-30 14:00:00 35.4 11 Oeste 21 Oeste 0 -- -- 25
2020-07-30 13:00:00 34.9 12 Sudeste 26 Sudeste 0 -- -- 28
2020-07-30 12:00:00 32.6 10 Sudeste 24 Sudeste 0 -- -- 32
2020-07-30 11:00:00 26.5 3 Noroeste 8 Noroeste 0 -- -- 52
2020-07-30 10:00:00 21.3 3 Sur 9 Sudoeste 0 -- -- 70
2020-07-30 09:00:00 16.8 4 Oeste 8 Oeste 0 -- -- 89
2020-07-30 08:00:00 13.6 4 Sur 9 Sudoeste 0 -- -- 89
2020-07-30 07:00:00 13.4 2 Sudoeste 8 Oeste 0 -- -- 87
2020-07-30 06:00:00 13.4 0 Calma 5 Oeste 0 -- -- 85
2020-07-30 05:00:00 14.9 3 Sudoeste 6 Oeste 0 -- -- 84
2020-07-30 04:00:00 15.1 2 Oeste 5 Oeste 0 -- -- 81
2020-07-30 03:00:00 16.5 0 Calma 6 Sur 0 -- -- 74
2020-07-30 02:00:00 18.6 4 Sudoeste 10 Sudoeste 0 -- -- 70
2020-07-30 01:00:00 20.4 4 Sudoeste 7 Sudoeste 0 -- -- 70
2020-07-30 00:00:00 23 4 Nordeste 14 Oeste 0 -- -- 62
2020-07-29 23:00:00 24.4 4 Sudoeste 8 Sur 0 -- -- 55
2020-07-29 22:00:00 27.2 5 Noroeste 12 Noroeste 0 -- -- 42
2020-07-29 21:00:00 32.2 7 Noroeste 19 Noroeste 0 -- -- 33
2020-07-29 20:00:00 33.4 13 Norte 18 Norte 0 -- -- 31
2020-07-29 19:00:00 34.3 11 Noroeste 24 Noroeste 0 -- -- 30
2020-07-29 18:00:00 34.2 11 Norte 22 Norte 0 -- -- 31
2020-07-29 17:00:00 33.6 15 Noroeste 25 Norte 0 -- -- 32
2020-07-29 16:00:00 34.6 14 Norte 26 Este 0 -- -- 30
2020-07-29 15:00:00 34.7 12 Sudeste 27 Sur 0 -- -- 27
2020-07-29 14:00:00 32.9 14 Sudeste 28 Este 0 -- -- 31
2020-07-29 13:00:00 31.1 13 Sudeste 24 Sudeste 0 -- -- 35
2020-07-29 12:00:00 27.1 9 Sudeste 25 Sudeste 0 -- -- 49
2020-07-29 11:00:00 19.9 6 Nordeste 10 Nordeste 0 -- -- 89
2020-07-29 10:00:00 15.1 0 Calma 6 Nordeste 0 -- -- 92
2020-07-29 09:00:00 13.6 0 Calma 4 Este 0 -- -- 93
2020-07-29 08:00:00 13 3 Este 6 Sudeste 0 -- -- 92
2020-07-29 07:00:00 13.6 4 Este 7 Este 0 -- -- 92
2020-07-29 06:00:00 13.7 3 Este 7 Sudeste 0 -- -- 92
2020-07-29 05:00:00 13.5 3 Norte 6 Nordeste 0 -- -- 92
2020-07-29 04:00:00 13.4 0 Calma 8 Nordeste 0 -- -- 91
2020-07-29 03:00:00 12.5 5 Este 8 Este 0 -- -- 89
2020-07-29 02:00:00 13.3 5 Este 7 Este 0 -- -- 87
2020-07-29 01:00:00 14.6 5 Este 9 Este 0 -- -- 83
2020-07-29 00:00:00 17 3 Oeste 8 Norte 0 -- -- 77
2020-07-28 23:00:00 18.9 6 Noroeste 14 Noroeste 0 -- -- 71
2020-07-28 22:00:00 21.8 7 Noroeste 19 Norte 0 -- -- 60
2020-07-28 21:00:00 25.2 13 Norte 22 Noroeste 0 -- -- 47
2020-07-28 20:00:00 27.3 13 Norte 26 Noroeste 0 -- -- 43
2020-07-28 19:00:00 28.4 15 Norte 29 Norte 0 -- -- 41
2020-07-28 18:00:00 29.5 12 Norte 25 Norte 0 -- -- 39
2020-07-28 17:00:00 28.5 16 Norte 31 Noroeste 0 -- -- 39
2020-07-28 16:00:00 28.4 16 Norte 27 Norte 0 -- -- 40
2020-07-28 15:00:00 27.8 10 Norte 22 Noroeste 0 -- -- 44
2020-07-28 14:00:00 25.9 10 Norte 21 Norte 0 -- -- 49
2020-07-28 13:00:00 24.4 6 Norte 18 Norte 0 -- -- 55
2020-07-28 12:00:00 22.4 9 Norte 16 Norte 0 -- -- 64
2020-07-28 11:00:00 19.2 5 Noroeste 21 Noroeste 0 -- -- 77
2020-07-28 10:00:00 18.8 10 Noroeste 18 Noroeste 0 -- -- 83
2020-07-28 09:00:00 17.5 3 Noroeste 8 Oeste 0 -- -- 91
2020-07-28 08:00:00 15.6 0 Calma 9 Oeste 0 -- -- 91
2020-07-28 07:00:00 16.5 6 Noroeste 15 Noroeste 0 -- -- 91
2020-07-28 06:00:00 16.4 8 Noroeste 13 Noroeste 0 -- -- 91
2020-07-28 05:00:00 15.2 4 Oeste 12 Oeste 0 -- -- 90
2020-07-28 04:00:00 14.9 4 Oeste 8 Oeste 0 -- -- 89
2020-07-28 03:00:00 16.1 3 Oeste 8 Sudoeste 0 -- -- 86
2020-07-28 02:00:00 17.6 3 Oeste 10 Noroeste 0 -- -- 82
2020-07-28 01:00:00 18.4 5 Noroeste 13 Noroeste 0 -- -- 80
2020-07-28 00:00:00 19.4 7 Noroeste 16 Oeste 0 -- -- 75
2020-07-27 23:00:00 21 8 Oeste 21 Noroeste 0 -- -- 67
2020-07-27 22:00:00 22.9 9 Noroeste 26 Noroeste 0 -- -- 56
2020-07-27 21:00:00 26.1 14 Noroeste 26 Noroeste 0 -- -- 46
2020-07-27 20:00:00 29.2 13 Noroeste 24 Noroeste 0 -- -- 36
2020-07-27 19:00:00 31.1 12 Noroeste 27 Noroeste 0 -- -- 31
2020-07-27 18:00:00 31 13 Noroeste 27 Noroeste 0 -- -- 31
2020-07-27 17:00:00 31 16 Norte 26 Norte 0 -- -- 32
2020-07-27 16:00:00 31.2 12 Noroeste 27 Noroeste 0 -- -- 33
2020-07-27 15:00:00 30.6 11 Norte 25 Norte 0 -- -- 36
2020-07-27 14:00:00 29.1 12 Norte 21 Noroeste 0 -- -- 38
2020-07-27 13:00:00 28.1 11 Norte 19 Norte 0 -- -- 42
2020-07-27 12:00:00 26.3 8 Nordeste 15 Nordeste 0 -- -- 43
2020-07-27 09:00:00 14 0 Calma 4 Nordeste 0 -- -- 92
2020-07-27 08:00:00 9.7 0 Calma 6 Noroeste 0 -- -- 92
2020-07-27 07:00:00 9.7 0 Calma -- -- 0 -- -- 90
2020-07-27 06:00:00 11 0 Calma -- -- 0 -- -- 89
2020-07-27 05:00:00 11.7 0 Calma 4 Sur 0 -- -- 87
2020-07-27 04:00:00 13.3 3 Sur 6 Sudoeste 0 -- -- 85
2020-07-27 03:00:00 15 3 Sudoeste 7 Sudoeste 0 -- -- 84
2020-07-27 02:00:00 15.3 2 Sudoeste 6 Sur 0 -- -- 79
2020-07-27 01:00:00 17.2 2 Sur 5 Sudoeste 0 -- -- 71
2020-07-27 00:00:00 20.6 4 Sudoeste 6 Sudoeste 0 -- -- 63
2020-07-26 23:00:00 23.2 3 Sudoeste 11 Noroeste 0 -- -- 54
2020-07-26 22:00:00 25.9 6 Noroeste 15 Noroeste 0 -- -- 45
2020-07-26 21:00:00 29.9 9 Noroeste 19 Norte 0 -- -- 36
2020-07-26 20:00:00 31.1 11 Norte 20 Noroeste 0 -- -- 31
2020-07-26 19:00:00 31.8 10 Norte 23 Norte 0 -- -- 29
2020-07-26 18:00:00 31.6 13 Norte 27 Nordeste 0 -- -- 28
2020-07-26 17:00:00 31.4 15 Nordeste 26 Norte 0 -- -- 31
2020-07-26 16:00:00 31.4 11 Norte 22 Noroeste 0 -- -- 31
2020-07-26 15:00:00 31.1 9 Norte 17 Nordeste 0 -- -- 26
2020-07-26 14:00:00 29.6 6 Norte 14 Nordeste 0 -- -- 31
2020-07-26 13:00:00 27.3 7 Nordeste 15 Nordeste 0 -- -- 41
2020-07-26 12:00:00 24.2 5 Nordeste 13 Nordeste 0 -- -- 55
2020-07-26 11:00:00 21.4 3 Norte 9 Este 0 -- -- 68
2020-07-26 10:00:00 18.7 5 Nordeste 10 Norte 0 -- -- 89
2020-07-26 09:00:00 15.6 0 Calma -- -- 0 -- -- 92
2020-07-26 08:00:00 14.2 0 Calma 7 Oeste 0 -- -- 92
2020-07-26 07:00:00 13.7 3 Sudoeste 8 Sur 0 -- -- 91
2020-07-26 06:00:00 13.4 3 Sudoeste 8 Oeste 0 -- -- 89
2020-07-26 05:00:00 15 6 Oeste 12 Oeste 0 -- -- 89
2020-07-26 04:00:00 15.3 6 Oeste 13 Oeste 0 -- -- 87
2020-07-26 03:00:00 15.2 3 Sudoeste 9 Oeste 0 -- -- 84
2020-07-26 02:00:00 16 5 Sudoeste 9 Oeste 0 -- -- 81
2020-07-26 01:00:00 17.3 4 Noroeste 15 Noroeste 0 -- -- 78
2020-07-26 00:00:00 18.7 6 Noroeste 20 Noroeste 0 -- -- 70
2020-07-25 23:00:00 19.4 7 Oeste 17 Oeste 0 -- -- 63
2020-07-25 22:00:00 21.3 8 Noroeste 25 Noroeste 0 -- -- 54
2020-07-25 21:00:00 24.2 14 Noroeste 32 Noroeste 0 -- -- 45
2020-07-25 20:00:00 27.7 15 Noroeste 31 Noroeste 0 -- -- 36
2020-07-25 19:00:00 29.2 14 Noroeste 28 Oeste 0 -- -- 32
2020-07-25 18:00:00 29.7 13 Noroeste 26 Noroeste 0 -- -- 29
2020-07-25 17:00:00 30.1 12 Noroeste 24 Noroeste 0 -- -- 28
2020-07-25 16:00:00 29.1 15 Norte 33 Norte 0 -- -- 31
2020-07-25 15:00:00 28.3 10 Nordeste 18 Nordeste 0 -- -- 34
2020-07-25 14:00:00 26.7 15 Norte 30 Norte 0 -- -- 36
2020-07-25 13:00:00 25.8 18 Norte 26 Norte 0 -- -- 42
2020-07-25 12:00:00 22.7 6 Norte 14 Nordeste 0 -- -- 58
2020-07-25 11:00:00 17.6 3 Noroeste 9 Noroeste 0 -- -- 92
2020-07-25 10:00:00 13.7 0 Calma -- -- 0 -- -- 93
2020-07-25 09:00:00 12.2 0 Calma -- -- 0 -- -- 92
2020-07-25 08:00:00 10.1 0 Calma 6 Norte 0 -- -- 92
2020-07-25 07:00:00 8.8 0 Calma 6 Norte 0 -- -- 91
2020-07-25 06:00:00 10 0 Calma 6 Sudoeste 0 -- -- 89
2020-07-25 05:00:00 11.7 0 Calma 5 Sur 0 -- -- 89
2020-07-25 04:00:00 13.5 2 Sudoeste 8 Oeste 0 -- -- 87
2020-07-25 03:00:00 15 3 Oeste 9 Oeste 0 -- -- 84
2020-07-25 02:00:00 16 4 Oeste 8 Oeste 0 -- -- 79
2020-07-25 01:00:00 17.2 5 Oeste 10 Sudoeste 0 -- -- 75
2020-07-25 00:00:00 19.1 5 Oeste 15 Noroeste 0 -- -- 67
2020-07-24 23:00:00 20.4 4 Noroeste 14 Norte 0 -- -- 57
2020-07-24 22:00:00 22.7 10 Norte 20 Norte 0 -- -- 44
2020-07-24 21:00:00 26.1 13 Norte 25 Norte 0 -- -- 32
2020-07-24 20:00:00 27.9 15 Norte 32 Norte 0 -- -- 29
2020-07-24 19:00:00 28.3 17 Norte 28 Norte 0 -- -- 28
2020-07-24 18:00:00 28.7 15 Noroeste 28 Noroeste 0 -- -- 28
2020-07-24 17:00:00 28.2 16 Norte 30 Norte 0 -- -- 27
2020-07-24 16:00:00 27.9 17 Norte 31 Noroeste 0 -- -- 30
2020-07-24 15:00:00 26.6 14 Norte 31 Norte 0 -- -- 32
2020-07-24 14:00:00 25.1 13 Norte 23 Norte 0 -- -- 36
2020-07-24 13:00:00 23.3 9 Norte 18 Norte 0 -- -- 45
2020-07-24 12:00:00 20.2 8 Norte 15 Norte 0 -- -- 59
2020-07-24 11:00:00 15.7 4 Norte 10 Nordeste 0 -- -- 91
2020-07-24 10:00:00 13.2 3 Noroeste 11 Noroeste 0 -- -- 92
2020-07-24 09:00:00 12.7 4 Norte 9 Sudoeste 0 -- -- 92
2020-07-24 08:00:00 11.3 0 Calma 6 Oeste 0 -- -- 92
2020-07-24 07:00:00 11.6 0 Calma 16 Nordeste 0 -- -- 92
2020-07-24 06:00:00 11.2 7 Nordeste 12 Norte 0 -- -- 89
2020-07-24 05:00:00 12.7 0 Calma 5 Oeste 0 -- -- 88
2020-07-24 04:00:00 14.4 2 Sudoeste 18 Noroeste 0 -- -- 86
2020-07-24 03:00:00 15.4 6 Noroeste 15 Noroeste 0 -- -- 86
2020-07-24 02:00:00 16.9 11 Norte 22 Oeste 0 -- -- 84
2020-07-24 01:00:00 18.5 10 Noroeste 17 Noroeste 0 -- -- 76
2020-07-24 00:00:00 20 4 Noroeste 15 Oeste 0 -- -- 66
2020-07-23 23:00:00 21.7 8 Noroeste 28 Noroeste 0 -- -- 63
2020-07-23 22:00:00 23.8 13 Noroeste 26 Noroeste 0 -- -- 44
2020-07-23 21:00:00 27.7 16 Noroeste 29 Noroeste 0 -- -- 32
2020-07-23 20:00:00 29.9 17 Noroeste 31 Noroeste 0 -- -- 29
2020-07-23 19:00:00 31.4 16 Noroeste 33 Norte 0 -- -- 28
2020-07-23 18:00:00 32 15 Noroeste 31 Noroeste 0 -- -- 28
2020-07-23 17:00:00 32.3 15 Noroeste 30 Oeste 0 -- -- 28
2020-07-23 16:00:00 32.4 12 Noroeste 28 Norte 0 -- -- 29
2020-07-23 15:00:00 31.7 16 Noroeste 26 Noroeste 0 -- -- 31
2020-07-23 14:00:00 30.8 7 Norte 23 Norte 0 -- -- 33
2020-07-23 13:00:00 29.6 15 Norte 24 Norte 0 -- -- 35
2020-07-23 12:00:00 28.4 6 Norte 14 Norte 0 -- -- 47
2020-07-23 11:00:00 25.3 3 Norte 8 Nordeste 0 -- -- 55
2020-07-23 10:00:00 21.3 0 Calma 4 Sudeste 0 -- -- 74
2020-07-23 09:00:00 16.5 0 Calma -- -- 0 -- -- 91
2020-07-23 08:00:00 12.2 0 Calma 2 Noroeste 0 -- -- 91
2020-07-23 07:00:00 12.7 0 Calma 2 Este 0 -- -- 89
2020-07-23 06:00:00 13.1 0 Calma 3 Noroeste 0 -- -- 88
2020-07-23 05:00:00 14.5 0 Calma 6 Oeste 0 -- -- 86
2020-07-23 04:00:00 15.5 0 Calma 7 Sur 0 -- -- 82
2020-07-23 03:00:00 17.8 5 Sur 18 Sur 0 -- -- 76
2020-07-23 02:00:00 19 4 Oeste 10 Oeste 0 -- -- 72
2020-07-23 01:00:00 19.9 6 Sudoeste 9 Norte 0 -- -- 68
2020-07-23 00:00:00 21 0 Calma 5 Noroeste 0 -- -- 61
2020-07-22 23:00:00 23.4 0 Calma 12 Noroeste 0 -- -- 48
2020-07-22 22:00:00 26.2 5 Oeste 21 Noroeste 0 -- -- 42
2020-07-22 21:00:00 28.7 9 Noroeste 18 Noroeste 0 -- -- 41
2020-07-22 20:00:00 29.5 12 Noroeste 30 Norte 0 -- -- 36
2020-07-22 19:00:00 33.3 13 Noroeste 49 Noroeste 0 -- -- 28
2020-07-22 18:00:00 33.1 12 Noroeste 23 Noroeste 0 -- -- 27
2020-07-22 17:00:00 33.1 11 Norte 24 Noroeste 0 -- -- 28
2020-07-22 16:00:00 32.4 12 Norte 23 Norte 0 -- -- 28
2020-07-22 15:00:00 31.9 14 Norte 26 Norte 0 -- -- 29
2020-07-22 14:00:00 31.7 12 Norte 23 Norte 0 -- -- 29
2020-07-22 13:00:00 30.4 10 Norte 17 Nordeste 0 -- -- 33
2020-07-22 12:00:00 29.7 8 Nordeste 13 Nordeste 0 -- -- 36
2020-07-22 11:00:00 27.2 3 Sudeste 8 Sudeste 0 -- -- 44
2020-07-22 10:00:00 22.2 3 Sur 8 Sur 0 -- -- 64
2020-07-22 09:00:00 16.5 3 Oeste 10 Oeste 0 -- -- 88
2020-07-22 08:00:00 13.2 0 Calma 5 Oeste 0 -- -- 89
2020-07-22 07:00:00 13 0 Calma 10 Oeste 0 -- -- 89
2020-07-22 06:00:00 13.8 6 Oeste 12 Sudoeste 0 -- -- 89
2020-07-22 05:00:00 13.7 0 Calma 6 Oeste 0 -- -- 88
2020-07-22 04:00:00 13.9 4 Oeste 8 Sudoeste 0 -- -- 87
2020-07-22 03:00:00 14.4 0 Calma 4 Noroeste 0 -- -- 86
2020-07-22 02:00:00 15.5 3 Noroeste 9 Sudeste 0 -- -- 80
2020-07-22 01:00:00 16.9 2 Sur 5 Sur 0 -- -- 74
2020-07-22 00:00:00 18.8 3 Sudoeste 8 Sur 0 -- -- 70
2020-07-21 23:00:00 20.9 2 Sudoeste 8 Oeste 0 -- -- 65
2020-07-21 22:00:00 23.2 0 Calma 6 Noroeste 0 -- -- 60
2020-07-21 21:00:00 25.1 4 Norte 13 Nordeste 0 -- -- 48
2020-07-21 20:00:00 28.1 5 Nordeste 12 Norte 0 -- -- 38
2020-07-21 19:00:00 29.1 3 Sudoeste 26 Sudoeste 0 -- -- 31
2020-07-21 18:00:00 32 0 Calma 22 Sudoeste 0 -- -- 31
2020-07-21 17:00:00 31.9 12 Norte 20 Noroeste 0 -- -- 31
2020-07-21 16:00:00 34.7 4 Oeste 20 Nordeste 0 -- -- 23
2020-07-21 15:00:00 32.2 10 Este 22 Este 0 -- -- 26
2020-07-21 14:00:00 31.7 12 Este 30 Sudeste 0 -- -- 32
2020-07-21 13:00:00 27.5 4 Sudeste 15 Sudeste 0 -- -- 48
2020-07-21 12:00:00 25.3 9 Norte 17 Norte 0 -- -- 53
2020-07-21 11:00:00 21.1 2 Norte 8 Sudoeste 0 -- -- 78
2020-07-21 10:00:00 16.8 5 Oeste 10 Oeste 0 -- -- 92
2020-07-21 09:00:00 14.6 2 Este 9 Sur 0 -- -- 92
2020-07-21 08:00:00 14.2 2 Sur 7 Sur 0 -- -- 92
2020-07-21 07:00:00 13.8 0 Calma 7 Nordeste 0 -- -- 92
2020-07-21 06:00:00 13.7 3 Norte 6 Norte 0 -- -- 92
2020-07-21 05:00:00 13.6 5 Nordeste 9 Este 0 -- -- 91
2020-07-21 04:00:00 12.6 4 Este 6 Este 0 -- -- 89
2020-07-21 03:00:00 13.6 4 Este 10 Este 0 -- -- 88
2020-07-21 02:00:00 14.7 7 Nordeste 10 Nordeste 0 -- -- 85
2020-07-21 01:00:00 16.5 5 Este 8 Sur 0 -- -- 79
2020-07-21 00:00:00 18.2 4 Sur 8 Sudeste 0 -- -- 74
2020-07-20 23:00:00 20.4 4 Norte 11 Noroeste 0 -- -- 64
2020-07-20 22:00:00 23.4 6 Noroeste 22 Norte 0 -- -- 56
2020-07-20 21:00:00 27 15 Norte 27 Norte 0 -- -- 44
2020-07-20 20:00:00 30.2 16 Noroeste 24 Norte 0 -- -- 37
2020-07-20 19:00:00 31.3 11 Norte 21 Noroeste 0 -- -- 34
2020-07-20 18:00:00 31.6 14 Norte 28 Noroeste 0 -- -- 34
2020-07-20 17:00:00 31.3 13 Norte 22 Norte 0 -- -- 36
2020-07-20 16:00:00 30.9 13 Norte 24 Norte 0 -- -- 38
2020-07-20 15:00:00 30.1 16 Norte 24 Norte 0 -- -- 39
2020-07-20 14:00:00 28.9 3 Oeste 14 Nordeste 0 -- -- 41
2020-07-20 13:00:00 26.4 5 Norte 14 Nordeste 0 -- -- 48
2020-07-20 12:00:00 22.9 4 Nordeste 13 Nordeste 0 -- -- 58
2020-07-20 11:00:00 19.6 4 Nordeste 12 Noroeste 0 -- -- 75
2020-07-20 10:00:00 17.1 6 Norte 11 Nordeste 0 -- -- 86
2020-07-20 09:00:00 16.2 4 Norte 10 Norte 0 -- -- 91
2020-07-20 08:00:00 15.6 6 Noroeste 13 Noroeste 0 -- -- 91
2020-07-20 07:00:00 15.6 3 Norte 8 Norte 0 -- -- 92
2020-07-20 06:00:00 15.5 3 Noroeste 9 Norte 0 -- -- 92
2020-07-20 05:00:00 15.6 0 Calma 8 Oeste 0 -- -- 91
2020-07-20 04:00:00 15.5 2 Oeste 6 Sur 0 -- -- 91
2020-07-20 03:00:00 14.1 0 Calma 6 Nordeste 0 -- -- 89
2020-07-20 02:00:00 15.2 0 Calma 5 Norte 0 -- -- 85
2020-07-20 01:00:00 17.1 0 Calma 6 Norte 0 -- -- 78
2020-07-20 00:00:00 18.9 0 Calma 12 Norte 0 -- -- 70
2020-07-19 23:00:00 21 0 Calma 13 Noroeste 0 -- -- 58
2020-07-19 22:00:00 24.4 7 Noroeste 21 Noroeste 0 -- -- 44
2020-07-19 21:00:00 28.3 12 Noroeste 26 Norte 0 -- -- 40
2020-07-19 20:00:00 30.6 15 Noroeste 28 Noroeste 0 -- -- 38
2020-07-19 19:00:00 31.8 17 Noroeste 29 Noroeste 0 -- -- 35
2020-07-19 18:00:00 33.2 15 Norte 32 Norte 0 -- -- 27
2020-07-19 17:00:00 33.1 15 Norte 26 Noroeste 0 -- -- 25
2020-07-19 16:00:00 33.3 12 Norte 26 Norte 0 -- -- 28
2020-07-19 15:00:00 32.8 10 Norte 22 Norte 0 -- -- 28
2020-07-19 14:00:00 32.3 6 Norte 21 Norte 0 -- -- 30
2020-07-19 13:00:00 30 8 Norte 17 Norte 0 -- -- 33
2020-07-19 12:00:00 27.9 3 Nordeste 11 Nordeste 0 -- -- 41
2020-07-19 11:00:00 24.2 5 Nordeste 9 Nordeste 0 -- -- 46
2020-07-19 10:00:00 19.1 2 Oeste 5 Sudoeste 0 -- -- 61
2020-07-19 09:00:00 14.2 0 Calma 3 Noroeste 0 -- -- 85
2020-07-19 08:00:00 10.7 0 Calma 8 Sur 0 -- -- 88
2020-07-19 07:00:00 10.3 4 Sudoeste 6 Sudoeste 0 -- -- 86
2020-07-19 06:00:00 10.8 2 Sudoeste 5 Sudoeste 0 -- -- 87
2020-07-19 05:00:00 11.4 0 Calma 3 Oeste 0 -- -- 83
2020-07-19 04:00:00 13.3 0 Calma 6 Sudoeste 0 -- -- 76
2020-07-19 03:00:00 15.4 3 Sur 8 Sudoeste 0 -- -- 68
2020-07-19 02:00:00 16.9 5 Sudoeste 9 Oeste 0 -- -- 63
2020-07-19 01:00:00 18.9 4 Sudoeste 7 Sur 0 -- -- 58
2020-07-19 00:00:00 20.2 4 Sudoeste 7 Sudoeste 0 -- -- 50
2020-07-18 23:00:00 22.4 0 Calma 9 Norte 0 -- -- 44
2020-07-18 22:00:00 27.6 3 Oeste 13 Oeste 0 -- -- 33
2020-07-18 21:00:00 31.4 9 Noroeste 22 Oeste 0 -- -- 27
2020-07-18 20:00:00 33.5 14 Noroeste 28 Oeste 0 -- -- 25
2020-07-18 19:00:00 35.8 12 Oeste 24 Oeste 0 -- -- 21
2020-07-18 18:00:00 35.9 9 Sudeste 24 Sudeste 0 -- -- 22
2020-07-18 17:00:00 35.9 8 Este 26 Sudeste 0 -- -- 22
2020-07-18 16:00:00 34.8 10 Sudeste 24 Sudeste 0 -- -- 23
2020-07-18 15:00:00 33.7 14 Sudeste 28 Este 0 -- -- 24
2020-07-18 14:00:00 32 16 Sudeste 31 Sudeste 0 -- -- 25
2020-07-18 13:00:00 30.1 17 Sudeste 36 Sudeste 0 -- -- 28
2020-07-18 12:00:00 27.5 21 Sudeste 38 Sudeste 0 -- -- 29
2020-07-18 11:00:00 25.4 19 Sudeste 36 Sudeste 0 -- -- 31
2020-07-18 10:00:00 23.7 19 Sudeste 33 Sudeste 0 -- -- 34
2020-07-18 09:00:00 21.1 16 Sudeste 28 Este 0 -- -- 37
2020-07-18 08:00:00 19 9 Sudeste 20 Sudeste 0 -- -- 38
2020-07-18 07:00:00 18.6 8 Sudeste 21 Sudeste 0 -- -- 37
2020-07-18 06:00:00 18.8 10 Sudeste 22 Este 0 -- -- 38
2020-07-18 05:00:00 15.6 6 Sudeste 13 Sudeste 0 -- -- 53
2020-07-18 04:00:00 14.9 8 Sudeste 16 Sudeste 0 -- -- 73
2020-07-18 03:00:00 13.7 0 Calma 6 Oeste 0 -- -- 82
2020-07-18 02:00:00 15.2 0 Calma 9 Sudeste 0 -- -- 74
2020-07-18 01:00:00 18 0 Calma 8 Sur 0 -- -- 67
2020-07-18 00:00:00 21.1 5 Sudoeste 9 Sudoeste 0 -- -- 57
2020-07-17 23:00:00 23.8 0 Calma 15 Norte 0 -- -- 49
2020-07-17 22:00:00 27.4 8 Nordeste 20 Nordeste 0 -- -- 36
2020-07-17 21:00:00 32.2 7 Norte 17 Norte 0 -- -- 26
2020-07-17 20:00:00 34.1 10 Norte 16 Norte 0 -- -- 23
2020-07-17 19:00:00 35.3 5 Sur 13 Sur 0 -- -- 19
2020-07-17 18:00:00 34.9 4 Noroeste 17 Sudeste 0 -- -- 20
2020-07-17 17:00:00 34.4 8 Sudeste 23 Nordeste 0 -- -- 21
2020-07-17 16:00:00 34.2 5 Sudeste 23 Sudeste 0 -- -- 23
2020-07-17 15:00:00 32.8 8 Sudeste 30 Sur 0 -- -- 23
2020-07-17 14:00:00 31.8 11 Sudeste 26 Este 0 -- -- 23
2020-07-17 13:00:00 29.8 13 Sudeste 30 Este 0 -- -- 25
2020-07-17 12:00:00 27.5 18 Sudeste 36 Sudeste 0 -- -- 26
2020-07-17 11:00:00 25.7 13 Sudeste 27 Sudeste 0 -- -- 30
2020-07-17 10:00:00 23.9 13 Sudeste 26 Sudeste 0 -- -- 33
2020-07-17 09:00:00 19.3 5 Este 11 Este 0 -- -- 53
2020-07-17 08:00:00 11.5 4 Nordeste 9 Sudoeste 0 -- -- 91
2020-07-17 07:00:00 10.8 0 Calma 7 Nordeste 0 -- -- 91
2020-07-17 06:00:00 10.7 3 Norte 7 Norte 0 -- -- 91
2020-07-17 05:00:00 11.1 6 Nordeste 9 Nordeste 0 -- -- 90
2020-07-17 04:00:00 11.7 4 Nordeste 9 Nordeste 0 -- -- 88
2020-07-17 03:00:00 12.9 2 Norte 6 Norte 0 -- -- 85
2020-07-17 02:00:00 14.5 0 Calma 6 Este 0 -- -- 80
2020-07-17 01:00:00 16.3 4 Este 8 Este 0 -- -- 76
2020-07-17 00:00:00 18.4 4 Sur 6 Sur 0 -- -- 67
2020-07-16 23:00:00 20.7 0 Calma 9 Noroeste 0 -- -- 58
2020-07-16 22:00:00 23.8 8 Norte 16 Norte 0 -- -- 47
2020-07-16 21:00:00 27.7 10 Norte 22 Norte 0 -- -- 37
2020-07-16 20:00:00 30.2 14 Norte 26 Norte 0 -- -- 33
2020-07-16 19:00:00 31.4 14 Norte 23 Norte 0 -- -- 31
2020-07-16 18:00:00 32 13 Norte 26 Norte 0 -- -- 31
2020-07-16 17:00:00 31.3 14 Norte 26 Norte 0 -- -- 33
2020-07-16 16:00:00 31.5 13 Norte 27 Norte 0 -- -- 31
2020-07-16 15:00:00 32.2 6 Nordeste 19 Este 0 -- -- 26
2020-07-16 14:00:00 31.1 9 Este 30 Este 0 -- -- 27
2020-07-16 13:00:00 28.7 12 Sudeste 28 Este 0 -- -- 28
2020-07-16 12:00:00 27.3 13 Este 26 Sudeste 0 -- -- 31
2020-07-16 11:00:00 24.5 13 Sudeste 22 Sudeste 0 -- -- 39
2020-07-16 10:00:00 17.7 5 Nordeste 10 Norte 0 -- -- 73
2020-07-16 09:00:00 13.2 0 Calma 7 Sudeste 0 -- -- 92
2020-07-16 08:00:00 9.8 0 Calma 4 Sudoeste 0 -- -- 92
2020-07-16 07:00:00 8.9 0 Calma 4 Oeste 0 -- -- 91
2020-07-16 06:00:00 9.8 0 Calma 7 Nordeste 0 -- -- 90
2020-07-16 05:00:00 10.2 3 Nordeste 5 Nordeste 0 -- -- 89
2020-07-16 04:00:00 11.3 4 Nordeste 6 Nordeste 0 -- -- 87
2020-07-16 03:00:00 12.3 3 Nordeste 7 Nordeste 0 -- -- 84
2020-07-16 02:00:00 13.5 6 Nordeste 10 Este 0 -- -- 80
2020-07-16 01:00:00 15 4 Sudeste 11 Este 0 -- -- 77
2020-07-16 00:00:00 16.5 0 Calma 6 Sudeste 0 -- -- 70
2020-07-15 23:00:00 19.4 3 Sudoeste 8 Oeste 0 -- -- 59
2020-07-15 22:00:00 22.3 6 Noroeste 17 Noroeste 0 -- -- 49
2020-07-15 21:00:00 25.9 10 Noroeste 22 Norte 0 -- -- 42
2020-07-15 20:00:00 27.2 14 Norte 31 Norte 0 -- -- 39
2020-07-15 19:00:00 28 19 Norte 31 Norte 0 -- -- 36
2020-07-15 18:00:00 29.2 15 Norte 27 Norte 0 -- -- 33
2020-07-15 17:00:00 30.2 11 Noroeste 22 Norte 0 -- -- 30
2020-07-15 16:00:00 29.1 11 Norte 24 Norte 0 -- -- 31
2020-07-15 15:00:00 27.8 13 Nordeste 26 Este 0 -- -- 33
2020-07-15 14:00:00 26.8 10 Nordeste 20 Nordeste 0 -- -- 36
2020-07-15 13:00:00 24.2 8 Norte 18 Nordeste 0 -- -- 39
2020-07-15 12:00:00 22 4 Nordeste 15 Nordeste 0 -- -- 44
2020-07-15 11:00:00 18.2 6 Nordeste 12 Nordeste 0 -- -- 57
2020-07-15 10:00:00 15.5 5 Nordeste 12 Nordeste 0 -- -- 71
2020-07-15 09:00:00 12.1 0 Calma 4 Nordeste 0 -- -- 90
2020-07-15 08:00:00 8.3 0 Calma 4 Norte 0 -- -- 90
2020-07-15 07:00:00 8.4 4 Sudeste 9 Sur 0 -- -- 90
2020-07-15 06:00:00 8.9 4 Sur 8 Sur 0 -- -- 89
2020-07-15 05:00:00 9.3 3 Sudoeste 8 Sudoeste 0 -- -- 89
2020-07-15 04:00:00 9.7 4 Sur 6 Sur 0 -- -- 87
2020-07-15 03:00:00 10.1 2 Sudoeste 7 Sudoeste 0 -- -- 83
2020-07-15 02:00:00 11.5 3 Sudoeste 9 Sudoeste 0 -- -- 79
2020-07-15 01:00:00 12.8 2 Sudoeste -- -- -- -- -- 71
2020-07-15 00:00:00 14.2 6 Noroeste 14 Noroeste 0 -- -- 65
2020-07-14 23:00:00 15.3 9 Noroeste 18 Noroeste 0 -- -- 57
2020-07-14 22:00:00 18 12 Norte 25 Norte 0 -- -- 44
2020-07-14 21:00:00 21.5 15 Norte 28 Noroeste 0 -- -- 36
2020-07-14 20:00:00 23.3 18 Noroeste 33 Norte 0 -- -- 34
2020-07-14 19:00:00 23.9 21 Noroeste 35 Noroeste 0 -- -- 33
2020-07-14 18:00:00 25.3 20 Noroeste 35 Norte 0 -- -- 33
2020-07-14 17:00:00 25.4 19 Norte 33 Noroeste 0 -- -- 36
2020-07-14 16:00:00 25.4 17 Norte 31 Norte 0 -- -- 36
2020-07-14 15:00:00 25.2 15 Noroeste 29 Noroeste 0 -- -- 37
2020-07-14 14:00:00 24.2 15 Norte 24 Norte 0 -- -- 39
2020-07-14 13:00:00 22.3 13 Norte 23 Norte 0 -- -- 45
2020-07-14 12:00:00 21 11 Norte 18 Norte 0 -- -- 53
2020-07-14 11:00:00 18.9 4 Norte 12 Norte 0 -- -- 59
2020-07-14 10:00:00 16.3 2 Sudeste 6 Este 0 -- -- 76
2020-07-14 09:00:00 12.4 2 Sur 7 Sur 0 -- -- 90
2020-07-14 08:00:00 9.5 3 Sudoeste 8 Nordeste 0 -- -- 90
2020-07-14 07:00:00 9.1 8 Nordeste 10 Nordeste 0 -- -- 88
2020-07-14 06:00:00 10.7 4 Sur 9 Sur 0 -- -- 88
2020-07-14 05:00:00 10.3 0 Calma 5 Este 0 -- -- 87
2020-07-14 04:00:00 10.8 0 Calma 5 Norte 0 -- -- 84
2020-07-14 03:00:00 12 0 Calma 6 Sur 0 -- -- 80
2020-07-14 02:00:00 12.8 5 Sudoeste 7 Sur 0 -- -- 75
2020-07-14 01:00:00 14.1 3 Sudoeste 8 Oeste 0 -- -- 68
2020-07-14 00:00:00 17 4 Oeste 11 Noroeste 0 -- -- 58
2020-07-13 23:00:00 18.8 9 Noroeste 17 Noroeste 0 -- -- 53
2020-07-13 22:00:00 21.9 9 Noroeste 25 Noroeste 0 -- -- 47
2020-07-13 21:00:00 25.5 15 Norte 30 Norte 0 -- -- 42
2020-07-13 20:00:00 28.2 18 Norte 30 Norte 0 -- -- 38
2020-07-13 19:00:00 29.5 17 Norte 28 Norte 0 -- -- 37
2020-07-13 18:00:00 30.8 14 Norte 25 Norte 0 -- -- 36
2020-07-13 17:00:00 30.9 12 Norte 22 Nordeste 0 -- -- 35
2020-07-13 16:00:00 30.8 13 Norte 21 Norte 0 -- -- 37
2020-07-13 15:00:00 29.7 8 Norte 28 Noroeste 0 -- -- 39
2020-07-13 14:00:00 29.8 10 Nordeste 22 Nordeste 0 -- -- 38
2020-07-13 13:00:00 28.7 8 Sudeste 21 Este 0 -- -- 40
2020-07-13 12:00:00 26.5 12 Este 22 Sudeste 0 -- -- 47
2020-07-13 11:00:00 19.6 7 Nordeste 13 Nordeste 0 -- -- 85
2020-07-13 10:00:00 15.2 3 Nordeste 6 Este 0 -- -- 92
2020-07-13 09:00:00 13.9 0 Calma 8 Nordeste 0 -- -- 92
2020-07-13 08:00:00 13.7 0 Calma 8 Nordeste 0 -- -- 92
2020-07-13 07:00:00 13.2 0 Calma 6 Nordeste 0 -- -- 92
2020-07-13 06:00:00 12.4 2 Nordeste 7 Nordeste 0 -- -- 91
2020-07-13 05:00:00 13.3 6 Este 11 Este 0 -- -- 90
2020-07-13 04:00:00 14.1 0 Calma 8 Sudeste 0 -- -- 89
2020-07-13 03:00:00 14.8 5 Sudeste 9 Sudeste 0 -- -- 87
2020-07-13 02:00:00 16.2 2 Noroeste 8 Sudeste 0 -- -- 82
2020-07-13 01:00:00 17.9 0 Calma 12 Noroeste 0 -- -- 76
2020-07-13 00:00:00 19.9 4 Oeste 12 Oeste 0 -- -- 70
2020-07-12 23:00:00 21.6 7 Noroeste 18 Nordeste 0 -- -- 63
2020-07-12 22:00:00 24.5 15 Norte 22 Norte 0 -- -- 52
2020-07-12 21:00:00 28.4 16 Nordeste 24 Nordeste 0 -- -- 38
2020-07-12 20:00:00 30.9 13 Norte 22 Nordeste 0 -- -- 31
2020-07-12 19:00:00 31.8 13 Noroeste 22 Norte 0 -- -- 30
2020-07-12 18:00:00 31.9 13 Norte 26 Norte 0 -- -- 29
2020-07-12 17:00:00 32.7 9 Norte 21 Nordeste 0 -- -- 29
2020-07-12 16:00:00 31.8 4 Norte 18 Norte 0 -- -- 30
2020-07-12 15:00:00 31.6 8 Sudeste 17 Nordeste 0 -- -- 31
2020-07-12 14:00:00 31 4 Este 19 Sudeste 0 -- -- 33
2020-07-12 13:00:00 29.2 4 Sudeste 16 Este 0 -- -- 37
2020-07-12 12:00:00 26.9 10 Sudeste 22 Sudeste 0 -- -- 42
2020-07-12 11:00:00 26.1 9 Este 18 Este 0 -- -- 46
2020-07-12 10:00:00 22.2 7 Este 14 Nordeste 0 -- -- 61
2020-07-12 09:00:00 17.3 6 Nordeste 8 Nordeste 0 -- -- 79
2020-07-12 08:00:00 16 0 Calma 10 Sudoeste 0 -- -- 77
2020-07-12 07:00:00 16.8 5 Sudoeste 10 Norte 0 -- -- 71
2020-07-12 06:00:00 17.7 5 Nordeste 15 Sudeste 0 -- -- 65
2020-07-12 05:00:00 19.2 13 Este 23 Este 0 -- -- 62
2020-07-12 04:00:00 19.3 3 Sudoeste 9 Noroeste 0 -- -- 60
2020-07-12 03:00:00 19.8 0 Calma 23 Sudeste 0 -- -- 59
2020-07-12 02:00:00 19.9 13 Sudeste 30 Sudeste 0 -- -- 58
2020-07-12 01:00:00 20.8 20 Sudeste 37 Sudeste 0 -- -- 52
2020-07-12 00:00:00 23.5 14 Sur 44 Sur 0 -- -- 43
2020-07-11 23:00:00 22 3 Sudeste 6 Noroeste 0 -- -- 65
2020-07-11 22:00:00 24.2 6 Norte 18 Norte 0 -- -- 56
2020-07-11 21:00:00 26 9 Noroeste 22 Norte 0 -- -- 50
2020-07-11 20:00:00 28.3 7 Noroeste 22 Noroeste 0 -- -- 42
2020-07-11 19:00:00 32.9 8 Sudeste 21 Sur 0 -- -- 25
2020-07-11 18:00:00 34.1 12 Sudeste 24 Sudeste 0 -- -- 26
2020-07-11 17:00:00 34 10 Sudeste 28 Sudeste 0 -- -- 26
2020-07-11 16:00:00 32.9 17 Sudeste 29 Sudeste 0 -- -- 29
2020-07-11 15:00:00 32 13 Sudeste 27 Sur 0 -- -- 31
2020-07-11 14:00:00 30.4 14 Sudeste 30 Sudeste 0 -- -- 33
2020-07-11 13:00:00 28.8 13 Sudeste 27 Este 0 -- -- 36
2020-07-11 12:00:00 26.7 15 Sudeste 27 Este 0 -- -- 38
2020-07-11 11:00:00 24 11 Sudeste 26 Sudeste 0 -- -- 47
2020-07-11 10:00:00 16.3 7 Nordeste 12 Nordeste 0 -- -- 87
2020-07-11 09:00:00 11.9 2 Nordeste 7 Nordeste 0 -- -- 92
2020-07-11 08:00:00 8.5 0 Calma -- -- 0 -- -- 92
2020-07-11 07:00:00 7.9 0 Calma -- -- 0 -- -- 92
2020-07-11 06:00:00 8.5 0 Calma -- -- 0 -- -- 91
2020-07-11 05:00:00 9.2 0 Calma 4 Este 0 -- -- 90
2020-07-11 04:00:00 10.1 0 Calma 5 Sur 0 -- -- 89
2020-07-11 03:00:00 11.1 3 Sudeste 10 Este 0 -- -- 89
2020-07-11 02:00:00 11.5 5 Sudeste 7 Este 0 -- -- 86
2020-07-11 01:00:00 12.7 0 Calma 7 Oeste 0 -- -- 82
2020-07-11 00:00:00 14.1 0 Calma 6 Oeste 0 -- -- 76
2020-07-10 23:00:00 16.1 0 Calma 15 Norte 0 -- -- 69
2020-07-10 22:00:00 18.6 12 Noroeste 23 Noroeste 0 -- -- 61
2020-07-10 21:00:00 22.5 16 Norte 26 Noroeste 0 -- -- 52
2020-07-10 20:00:00 25.5 14 Norte 25 Norte 0 -- -- 47
2020-07-10 19:00:00 26.7 14 Norte 27 Noroeste 0 -- -- 44
2020-07-10 18:00:00 27.3 15 Norte 28 Noroeste 0 -- -- 43
2020-07-10 17:00:00 27.2 13 Norte 29 Noroeste 0 -- -- 43
2020-07-10 16:00:00 26.7 14 Norte 27 Norte 0 -- -- 44
2020-07-10 15:00:00 25.5 13 Norte 25 Norte 0 -- -- 44
2020-07-10 14:00:00 24 12 Norte 24 Norte 0 -- -- 47
2020-07-10 13:00:00 23.2 10 Norte 18 Norte 0 -- -- 49
2020-07-10 12:00:00 21 7 Nordeste 13 Nordeste 0 -- -- 55
2020-07-10 11:00:00 17.7 5 Norte 14 Nordeste 0 -- -- 64
2020-07-10 10:00:00 15.7 5 Norte 11 Nordeste 0 -- -- 71
2020-07-10 09:00:00 13.1 0 Calma 9 Norte 0 -- -- 80
2020-07-10 08:00:00 9.4 2 Norte 4 Norte 0 -- -- 85
2020-07-10 07:00:00 8.9 0 Calma 6 Sur 0 -- -- 81
2020-07-10 06:00:00 10 3 Sur 5 Sur 0 -- -- 81
2020-07-10 05:00:00 9.8 2 Sudoeste 7 Sudoeste 0 -- -- 78
2020-07-10 04:00:00 10.3 0 Calma 5 Oeste 0 -- -- 69
2020-07-10 03:00:00 13 4 Sur 9 Noroeste 0 -- -- 60
2020-07-10 02:00:00 14.2 3 Oeste 10 Noroeste 0 -- -- 55
2020-07-10 01:00:00 16.5 5 Noroeste 20 Noroeste 0 -- -- 49
2020-07-10 00:00:00 17.8 10 Noroeste 23 Noroeste 0 -- -- 44
2020-07-09 23:00:00 19 11 Norte 19 Noroeste 0 -- -- 40
2020-07-09 22:00:00 21.8 14 Noroeste 28 Norte 0 -- -- 34
2020-07-09 21:00:00 24.9 16 Norte 32 Norte 0 -- -- 31
2020-07-09 20:00:00 27.1 18 Norte 29 Norte 0 -- -- 31
2020-07-09 19:00:00 28.1 19 Norte 32 Noroeste 0 -- -- 35
2020-07-09 18:00:00 28.8 17 Norte 32 Norte 0 -- -- 37
2020-07-09 17:00:00 28.4 17 Norte 31 Norte 0 -- -- 39
2020-07-09 16:00:00 28.2 16 Norte 33 Norte 0 -- -- 42
2020-07-09 15:00:00 27 11 Noroeste 21 Noroeste 0 -- -- 45
2020-07-09 14:00:00 25.4 10 Norte 20 Norte 0 -- -- 51
2020-07-09 13:00:00 23.5 10 Norte -- -- -- -- -- 55
2020-07-09 12:00:00 20.7 7 Norte 17 Norte 0 -- -- 68
2020-07-09 11:00:00 18.1 6 Norte 13 Nordeste 0 -- -- 80
2020-07-09 10:00:00 16.9 9 Nordeste 13 Nordeste 0 -- -- 88
2020-07-09 09:00:00 15.6 5 Norte 8 Nordeste 0 -- -- 92
2020-07-09 08:00:00 15 3 Norte 9 Norte 0 -- -- 92
2020-07-09 07:00:00 15 4 Norte 9 Noroeste 0 -- -- 92
2020-07-09 06:00:00 15.2 0 Calma 10 Oeste 0 -- -- 92
2020-07-09 05:00:00 15.2 2 Noroeste 14 Norte 0 -- -- 92
2020-07-09 04:00:00 14.8 6 Este 12 Nordeste 0 -- -- 91
2020-07-09 03:00:00 14.6 7 Nordeste 11 Oeste 0 -- -- 89
2020-07-09 02:00:00 15.9 0 Calma 14 Nordeste 0 -- -- 86
2020-07-09 01:00:00 17 4 Sur 15 Norte 0 -- -- 82
2020-07-09 00:00:00 18.8 8 Nordeste 20 Nordeste 0 -- -- 75
2020-07-08 23:00:00 20.4 5 Sudeste 17 Sudeste 0 -- -- 69
2020-07-08 22:00:00 21.9 3 Sudeste 24 Nordeste 0 -- -- 65
2020-07-08 21:00:00 24 10 Noroeste 25 Noroeste 0 -- -- 58
2020-07-08 20:00:00 25.4 16 Noroeste 30 Noroeste 0 -- -- 52
2020-07-08 19:00:00 28.1 12 Norte 29 Norte 0 -- -- 44
2020-07-08 18:00:00 30.6 17 Norte 30 Norte 0 -- -- 38
2020-07-08 17:00:00 30.3 16 Noroeste 26 Noroeste 0 -- -- 39
2020-07-08 16:00:00 30.2 16 Norte 27 Norte 0 -- -- 41
2020-07-08 15:00:00 29.5 16 Norte 26 Nordeste 0 -- -- 42
2020-07-08 14:00:00 28.7 14 Norte 24 Nordeste 0 -- -- 43
2020-07-08 13:00:00 26.5 10 Norte 16 Norte 0 -- -- 52
2020-07-08 12:00:00 23.4 9 Norte 19 Nordeste 0 -- -- 60
2020-07-08 11:00:00 21 9 Nordeste 14 Norte 0 -- -- 68
2020-07-08 10:00:00 17.8 6 Norte 9 Nordeste 0 -- -- 89
2020-07-08 09:00:00 15.8 7 Nordeste 10 Nordeste 0 -- -- 92
2020-07-08 08:00:00 13.5 0 Calma -- -- -- -- -- 92
2020-07-08 07:00:00 12.9 0 Calma -- -- 0 -- -- 91
2020-07-08 06:00:00 14.2 0 Calma 4 Sudeste 0 -- -- 90
2020-07-08 05:00:00 14.8 0 Calma 2 Nordeste 0 -- -- 89
2020-07-08 04:00:00 15.7 3 Nordeste 6 Norte 0 -- -- 87
2020-07-08 03:00:00 17.2 2 Norte 6 Sur 0 -- -- 81
2020-07-08 02:00:00 19.1 3 Sur 14 Sur 0 -- -- 78
2020-07-08 01:00:00 20.3 3 Sudoeste 9 Oeste 0 -- -- 74
2020-07-08 00:00:00 21.9 4 Oeste 9 Sudoeste 0 -- -- 69
2020-07-07 23:00:00 24.1 3 Noroeste 9 Noroeste 0 -- -- 58
2020-07-07 22:00:00 28.3 5 Oeste 9 Norte 0 -- -- 44
2020-07-07 21:00:00 30.7 8 Norte 17 Norte 0 -- -- 35
2020-07-07 20:00:00 32.4 11 Norte 20 Norte 0 -- -- 31
2020-07-07 19:00:00 33.2 12 Norte 22 Nordeste 0 -- -- 28
2020-07-07 18:00:00 33.4 12 Norte 19 Norte 0 -- -- 27
2020-07-07 17:00:00 33.4 13 Noroeste 24 Norte 0 -- -- 27
2020-07-07 16:00:00 34 6 Norte 19 Norte 0 -- -- 23
2020-07-07 15:00:00 33.3 8 Este 22 Este 0 -- -- 24
2020-07-07 14:00:00 31.8 12 Este 30 Sudeste 0 -- -- 25
2020-07-07 13:00:00 29.7 15 Sudeste 33 Sudeste 0 -- -- 24
2020-07-07 12:00:00 28.1 17 Sudeste 30 Sudeste 0 -- -- 25
2020-07-07 11:00:00 26.3 14 Sudeste 30 Sudeste 0 -- -- 26
2020-07-07 10:00:00 23 8 Sudeste 18 Sudeste 0 -- -- 38
2020-07-07 09:00:00 16.1 2 Norte 7 Oeste 0 -- -- 92
2020-07-07 08:00:00 11.8 0 Calma 5 Norte 0 -- -- 92
2020-07-07 07:00:00 10.4 2 Norte 6 Norte 0 -- -- 91
2020-07-07 06:00:00 11.3 0 Calma 5 Nordeste 0 -- -- 90
2020-07-07 05:00:00 11.7 4 Nordeste 6 Nordeste 0 -- -- 89
2020-07-07 04:00:00 12.7 3 Nordeste 6 Nordeste 0 -- -- 88
2020-07-07 03:00:00 13.7 5 Nordeste 7 Nordeste 0 -- -- 87
2020-07-07 02:00:00 15 5 Norte 13 Este 0 -- -- 85
2020-07-07 01:00:00 16.1 6 Nordeste 8 Nordeste 0 -- -- 81
2020-07-07 00:00:00 18 4 Nordeste 10 Nordeste 0 -- -- 75